createdAt,value
2023-02-16T00:00:05.951Z,23.27
2023-02-16T00:01:06.056Z,23.27
2023-02-16T00:02:05.951Z,23.27
2023-02-16T00:03:05.890Z,23.26
2023-02-16T00:04:05.861Z,23.26
2023-02-16T00:05:05.852Z,23.26
2023-02-16T00:06:05.832Z,23.26
2023-02-16T00:07:05.813Z,23.26
2023-02-16T00:08:05.788Z,23.27
2023-02-16T00:09:05.769Z,23.26
2023-02-16T00:10:05.754Z,23.26
2023-02-16T00:11:05.936Z,23.25
2023-02-16T00:12:05.688Z,23.25
2023-02-16T00:13:05.668Z,23.24
2023-02-16T00:14:05.656Z,23.25
2023-02-16T00:15:05.623Z,23.25
2023-02-16T00:16:05.639Z,23.25
2023-02-16T00:17:05.588Z,23.24
2023-02-16T00:18:05.560Z,23.24
2023-02-16T00:19:05.535Z,23.24
2023-02-16T00:20:05.512Z,23.24
2023-02-16T00:21:05.725Z,23.24
2023-02-16T00:22:05.465Z,23.24
2023-02-16T00:23:05.440Z,23.24
2023-02-16T00:24:05.418Z,23.23
2023-02-16T00:25:05.386Z,23.23
2023-02-16T00:26:05.379Z,23.23
2023-02-16T00:27:05.348Z,23.23
2023-02-16T00:28:05.319Z,23.23
2023-02-16T00:29:05.291Z,23.23
2023-02-16T00:30:05.292Z,23.22
2023-02-16T00:31:05.662Z,23.22
2023-02-16T00:32:05.377Z,23.22
2023-02-16T00:33:05.213Z,23.22
2023-02-16T00:34:05.191Z,23.22
2023-02-16T00:35:05.163Z,23.22
2023-02-16T00:36:05.162Z,23.22
2023-02-16T00:37:05.161Z,23.22
2023-02-16T00:38:05.120Z,23.21
2023-02-16T00:39:05.092Z,23.21
2023-02-16T00:40:05.066Z,23.21
2023-02-16T00:41:05.283Z,23.21
2023-02-16T00:42:05.010Z,23.21
2023-02-16T00:43:04.991Z,23.20
2023-02-16T00:44:04.969Z,23.20
2023-02-16T00:45:04.949Z,23.20
2023-02-16T00:46:04.945Z,23.20
2023-02-16T00:47:04.892Z,23.20
2023-02-16T00:48:04.862Z,23.20
2023-02-16T00:49:04.838Z,23.20
2023-02-16T00:50:04.808Z,23.19
2023-02-16T00:51:16.830Z,23.20
2023-02-16T00:52:05.754Z,23.18
2023-02-16T00:53:04.723Z,23.18
2023-02-16T00:54:04.708Z,23.19
2023-02-16T00:55:04.683Z,23.18
2023-02-16T00:56:04.652Z,23.18
2023-02-16T00:57:04.625Z,23.19
2023-02-16T00:58:04.626Z,23.18
2023-02-16T00:59:04.610Z,23.18
2023-02-16T01:00:04.578Z,23.18
2023-02-16T01:01:04.925Z,23.17
2023-02-16T01:02:04.523Z,23.17
2023-02-16T01:03:04.517Z,23.17
2023-02-16T01:04:04.496Z,23.17
2023-02-16T01:05:04.455Z,23.17
2023-02-16T01:06:05.263Z,23.17
2023-02-16T01:07:04.413Z,23.17
2023-02-16T01:08:04.403Z,23.16
2023-02-16T01:09:04.364Z,23.16
2023-02-16T01:10:04.343Z,23.16
2023-02-16T01:11:04.785Z,23.16
2023-02-16T01:12:04.296Z,23.16
2023-02-16T01:13:04.270Z,23.16
2023-02-16T01:14:04.246Z,23.16
2023-02-16T01:15:04.220Z,23.16
2023-02-16T01:16:04.265Z,23.16
2023-02-16T01:17:04.186Z,23.15
2023-02-16T01:18:04.158Z,23.16
2023-02-16T01:19:04.144Z,23.15
2023-02-16T01:20:04.111Z,23.15
2023-02-16T01:21:04.385Z,23.15
2023-02-16T01:22:04.078Z,23.15
2023-02-16T01:23:04.036Z,23.14
2023-02-16T01:24:04.006Z,23.14
2023-02-16T01:25:03.975Z,23.14
2023-02-16T01:26:03.959Z,23.13
2023-02-16T01:27:03.936Z,23.12
2023-02-16T01:28:03.929Z,23.13
2023-02-16T01:29:03.885Z,23.12
2023-02-16T01:30:03.897Z,23.11
2023-02-16T01:31:04.154Z,23.11
2023-02-16T01:32:04.028Z,23.11
2023-02-16T01:33:03.775Z,23.11
2023-02-16T01:34:03.749Z,23.11
2023-02-16T01:35:03.718Z,23.11
2023-02-16T01:36:03.697Z,23.10
2023-02-16T01:37:03.664Z,23.10
2023-02-16T01:38:03.642Z,23.10
2023-02-16T01:39:03.611Z,23.10
2023-02-16T01:40:03.589Z,23.11
2023-02-16T01:41:03.795Z,23.11
2023-02-16T01:42:03.543Z,23.10
2023-02-16T01:43:03.508Z,23.10
2023-02-16T01:44:03.496Z,23.09
2023-02-16T01:45:03.478Z,23.10
2023-02-16T01:46:03.472Z,23.10
2023-02-16T01:47:03.406Z,23.11
2023-02-16T01:48:03.383Z,23.11
2023-02-16T01:49:03.370Z,23.10
2023-02-16T01:50:03.782Z,23.09
2023-02-16T01:51:03.584Z,23.09
2023-02-16T01:52:03.303Z,23.08
2023-02-16T01:53:03.261Z,23.09
2023-02-16T01:54:03.375Z,23.09
2023-02-16T01:55:03.223Z,23.08
2023-02-16T01:56:03.197Z,23.08
2023-02-16T01:57:03.188Z,23.08
2023-02-16T01:58:03.133Z,23.08
2023-02-16T01:59:03.105Z,23.09
2023-02-16T02:00:03.078Z,23.08
2023-02-16T02:01:03.355Z,23.09
2023-02-16T02:02:03.046Z,23.08
2023-02-16T02:03:03.030Z,23.08
2023-02-16T02:04:02.964Z,23.07
2023-02-16T02:05:02.939Z,23.06
2023-02-16T02:06:02.919Z,23.07
2023-02-16T02:07:02.903Z,23.07
2023-02-16T02:08:02.864Z,23.06
2023-02-16T02:09:02.838Z,23.07
2023-02-16T02:10:02.811Z,23.06
2023-02-16T02:11:03.158Z,23.06
2023-02-16T02:12:02.758Z,23.06
2023-02-16T02:13:02.790Z,23.06
2023-02-16T02:14:02.708Z,23.06
2023-02-16T02:15:02.679Z,23.06
2023-02-16T02:16:02.684Z,23.05
2023-02-16T02:17:02.625Z,23.05
2023-02-16T02:18:02.618Z,23.05
2023-02-16T02:19:02.567Z,23.05
2023-02-16T02:20:02.551Z,23.05
2023-02-16T02:21:02.851Z,23.05
2023-02-16T02:22:02.480Z,23.05
2023-02-16T02:23:02.445Z,23.04
2023-02-16T02:24:02.420Z,23.04
2023-02-16T02:25:02.393Z,23.04
2023-02-16T02:26:02.470Z,23.04
2023-02-16T02:27:02.347Z,23.05
2023-02-16T02:28:02.342Z,23.04
2023-02-16T02:29:02.309Z,23.04
2023-02-16T02:30:02.359Z,23.04
2023-02-16T02:31:02.702Z,23.04
2023-02-16T02:32:02.280Z,23.04
2023-02-16T02:33:02.221Z,23.04
2023-02-16T02:34:02.192Z,23.04
2023-02-16T02:35:02.173Z,23.05
2023-02-16T02:36:02.152Z,23.05
2023-02-16T02:37:02.122Z,23.05
2023-02-16T02:38:02.110Z,23.06
2023-02-16T02:39:02.081Z,23.06
2023-02-16T02:40:02.065Z,23.06
2023-02-16T02:41:02.394Z,23.06
2023-02-16T02:42:02.035Z,23.06
2023-02-16T02:43:01.996Z,23.07
2023-02-16T02:44:01.988Z,23.06
2023-02-16T02:45:01.967Z,23.06
2023-02-16T02:46:01.936Z,23.07
2023-02-16T02:47:01.906Z,23.06
2023-02-16T02:48:01.911Z,23.06
2023-02-16T02:49:01.922Z,23.06
2023-02-16T02:50:01.859Z,23.06
2023-02-16T02:51:02.193Z,23.06
2023-02-16T02:52:01.819Z,23.06
2023-02-16T02:53:01.801Z,23.07
2023-02-16T02:54:01.775Z,23.06
2023-02-16T02:55:01.750Z,23.06
2023-02-16T02:56:01.727Z,23.06
2023-02-16T02:57:01.720Z,23.05
2023-02-16T02:58:01.698Z,23.05
2023-02-16T02:59:01.660Z,23.05
2023-02-16T03:00:01.645Z,23.06
2023-02-16T03:01:01.819Z,23.05
2023-02-16T03:02:01.618Z,23.05
2023-02-16T03:03:01.578Z,23.06
2023-02-16T03:04:01.552Z,23.04
2023-02-16T03:05:01.532Z,23.05
2023-02-16T03:06:01.515Z,23.05
2023-02-16T03:07:01.495Z,23.05
2023-02-16T03:08:01.484Z,23.05
2023-02-16T03:09:01.457Z,23.05
2023-02-16T03:10:01.480Z,23.05
2023-02-16T03:11:01.578Z,23.05
2023-02-16T03:12:01.411Z,23.05
2023-02-16T03:13:01.396Z,23.05
2023-02-16T03:14:01.483Z,23.05
2023-02-16T03:15:01.366Z,23.05
2023-02-16T03:16:01.369Z,23.05
2023-02-16T03:17:01.309Z,23.05
2023-02-16T03:18:01.276Z,23.05
2023-02-16T03:19:01.267Z,23.04
2023-02-16T03:20:01.245Z,23.04
2023-02-16T03:21:01.542Z,23.04
2023-02-16T05:26:58.598Z,22.91
2023-02-16T05:27:58.597Z,22.91
2023-02-16T05:28:58.556Z,22.91
2023-02-16T05:29:58.603Z,22.91
2023-02-16T05:30:58.564Z,22.91
2023-02-16T05:31:58.536Z,22.91
2023-02-16T05:32:58.467Z,22.91
2023-02-16T05:33:58.444Z,22.91
2023-02-16T05:34:58.432Z,22.91
2023-02-16T05:35:58.423Z,22.91
2023-02-16T05:36:58.389Z,22.91
2023-02-16T05:37:58.367Z,22.91
2023-02-16T05:38:58.348Z,22.91
2023-02-16T05:39:58.318Z,22.90
2023-02-16T05:40:58.318Z,22.91
2023-02-16T05:41:58.311Z,22.91
2023-02-16T05:42:58.268Z,22.92
2023-02-16T05:43:58.255Z,22.91
2023-02-16T05:44:58.245Z,22.92
2023-02-16T05:45:58.307Z,22.92
2023-02-16T05:46:58.200Z,22.92
2023-02-16T05:47:58.188Z,22.91
2023-02-16T05:48:58.176Z,22.91
2023-02-16T05:49:58.136Z,22.91
2023-02-16T05:50:58.125Z,22.90
2023-02-16T05:51:58.107Z,22.91
2023-02-16T05:52:58.090Z,22.91
2023-02-16T05:53:58.069Z,22.91
2023-02-16T05:54:58.067Z,22.91
2023-02-16T05:55:58.043Z,22.91
2023-02-16T05:56:58.040Z,22.91
2023-02-16T05:57:58.054Z,22.92
2023-02-16T05:58:57.995Z,22.91
2023-02-16T05:59:57.976Z,22.91
2023-02-16T06:00:57.962Z,22.91
2023-02-16T06:01:57.940Z,22.91
2023-02-16T06:02:58.019Z,22.90
2023-02-16T06:03:57.975Z,22.90
2023-02-16T06:04:57.889Z,22.90
2023-02-16T06:05:57.882Z,22.91
2023-02-16T06:06:57.850Z,22.90
2023-02-16T06:07:57.827Z,22.91
2023-02-16T06:08:57.817Z,22.90
2023-02-16T06:09:57.825Z,22.90
2023-02-16T06:10:57.781Z,22.90
2023-02-16T06:11:57.789Z,22.91
2023-02-16T06:12:57.750Z,22.91
2023-02-16T06:13:57.737Z,22.90
2023-02-16T06:14:57.715Z,22.90
2023-02-16T06:15:57.713Z,22.90
2023-02-16T06:16:57.686Z,22.91
2023-02-16T06:17:57.662Z,22.91
2023-02-16T06:18:57.672Z,22.91
2023-02-16T06:19:57.648Z,22.91
2023-02-16T06:20:57.602Z,22.91
2023-02-16T06:21:57.583Z,22.91
2023-02-16T06:22:57.582Z,22.91
2023-02-16T06:23:57.543Z,22.91
2023-02-16T06:24:57.534Z,22.90
2023-02-16T06:25:57.508Z,22.91
2023-02-16T06:26:57.522Z,22.90
2023-02-16T06:27:57.462Z,22.91
2023-02-16T06:28:57.461Z,22.90
2023-02-16T06:29:57.451Z,22.91
2023-02-16T06:30:57.410Z,22.91
2023-02-16T06:31:57.530Z,22.90
2023-02-16T06:32:57.352Z,22.90
2023-02-16T06:33:57.323Z,22.91
2023-02-16T06:34:57.312Z,22.90
2023-02-16T06:35:57.283Z,22.91
2023-02-16T06:36:57.272Z,22.91
2023-02-16T06:37:57.236Z,22.90
2023-02-16T06:38:57.204Z,22.91
2023-02-16T06:39:57.188Z,22.90
2023-02-16T06:40:57.172Z,22.91
2023-02-16T06:41:57.263Z,22.92
2023-02-16T06:42:57.121Z,22.92
2023-02-16T06:43:57.095Z,22.92
2023-02-16T06:44:57.085Z,22.92
2023-02-16T06:45:57.063Z,22.92
2023-02-16T06:46:57.060Z,22.92
2023-02-16T06:47:57.012Z,22.92
2023-02-16T06:48:56.988Z,22.92
2023-02-16T06:49:56.974Z,22.92
2023-02-16T06:50:56.955Z,22.92
2023-02-16T06:51:56.935Z,22.91
2023-02-16T06:52:56.921Z,22.92
2023-02-16T06:53:56.897Z,22.91
2023-02-16T06:54:56.871Z,22.92
2023-02-16T06:55:56.845Z,22.92
2023-02-16T06:56:56.841Z,22.92
2023-02-16T06:57:56.811Z,22.92
2023-02-16T06:58:56.790Z,22.92
2023-02-16T06:59:56.776Z,22.93
2023-02-16T07:00:56.821Z,22.92
2023-02-16T07:01:56.740Z,22.92
2023-02-16T07:02:56.780Z,22.92
2023-02-16T07:03:56.706Z,22.92
2023-02-16T07:04:56.691Z,22.93
2023-02-16T07:05:56.668Z,22.93
2023-02-16T07:06:56.649Z,22.93
2023-02-16T07:07:56.677Z,22.93
2023-02-16T07:08:56.608Z,22.94
2023-02-16T07:09:56.590Z,22.93
2023-02-16T07:10:56.583Z,22.93
2023-02-16T07:11:56.555Z,22.93
2023-02-16T07:12:56.543Z,22.93
2023-02-16T07:13:56.524Z,22.93
2023-02-16T07:14:56.506Z,22.93
2023-02-16T07:15:56.509Z,22.93
2023-02-16T07:16:56.478Z,22.92
2023-02-16T07:17:56.459Z,22.93
2023-02-16T07:18:56.438Z,22.94
2023-02-16T07:19:58.295Z,22.94
2023-02-16T07:20:56.384Z,22.93
2023-02-16T07:21:56.366Z,22.93
2023-02-16T07:22:56.365Z,22.93
2023-02-16T07:23:56.334Z,22.93
2023-02-16T07:24:56.319Z,22.93
2023-02-16T07:25:56.285Z,22.94
2023-02-16T07:26:56.264Z,22.93
2023-02-16T07:27:56.244Z,22.94
2023-02-16T07:28:56.223Z,22.93
2023-02-16T07:29:56.287Z,22.94
2023-02-16T07:30:56.240Z,22.94
2023-02-16T07:31:56.271Z,22.93
2023-02-16T07:32:56.146Z,22.94
2023-02-16T07:33:56.128Z,22.95
2023-02-16T07:34:56.101Z,22.95
2023-02-16T07:35:56.085Z,22.94
2023-02-16T07:36:56.068Z,22.94
2023-02-16T07:37:56.032Z,22.94
2023-02-16T07:38:56.023Z,22.94
2023-02-16T07:39:55.999Z,22.94
2023-02-16T07:40:55.967Z,22.93
2023-02-16T07:41:55.960Z,22.94
2023-02-16T07:42:55.938Z,22.95
2023-02-16T07:43:55.920Z,22.95
2023-02-16T07:44:55.892Z,22.95
2023-02-16T07:45:55.949Z,22.95
2023-02-16T07:46:55.837Z,22.95
2023-02-16T07:47:55.831Z,22.95
2023-02-16T07:48:55.808Z,22.95
2023-02-16T07:49:55.773Z,22.96
2023-02-16T07:50:55.757Z,22.95
2023-02-16T07:51:55.734Z,22.96
2023-02-16T07:52:55.714Z,22.96
2023-02-16T07:53:55.708Z,22.96
2023-02-16T07:54:55.677Z,22.97
2023-02-16T07:55:55.645Z,22.99
2023-02-16T07:56:55.615Z,22.99
2023-02-16T07:57:55.600Z,22.99
2023-02-16T07:58:55.580Z,23.00
2023-02-16T07:59:55.575Z,23.00
2023-02-16T08:00:55.551Z,23.01
2023-02-16T08:01:55.663Z,23.03
2023-02-16T08:02:55.588Z,23.03
2023-02-16T08:03:55.485Z,23.04
2023-02-16T08:04:55.451Z,23.04
2023-02-16T08:05:55.442Z,23.05
2023-02-16T08:06:55.424Z,23.07
2023-02-16T08:07:55.396Z,23.09
2023-02-16T08:08:55.388Z,23.08
2023-02-16T08:09:55.359Z,23.11
2023-02-16T08:10:55.337Z,23.12
2023-02-16T08:11:55.321Z,23.17
2023-02-16T08:12:55.314Z,23.17
2023-02-16T08:13:55.273Z,23.18
2023-02-16T08:14:55.259Z,23.18
2023-02-16T08:15:55.232Z,23.18
2023-02-16T08:16:56.699Z,23.20
2023-02-16T08:17:55.188Z,23.24
2023-02-16T08:18:55.177Z,23.26
2023-02-16T08:19:55.137Z,23.29
2023-02-16T08:21:04.309Z,23.32
2023-02-16T08:21:56.096Z,23.33
2023-02-16T08:22:55.052Z,23.36
2023-02-16T08:23:55.019Z,23.39
2023-02-16T08:24:54.992Z,23.42
2023-02-16T08:25:54.971Z,23.47
2023-02-16T08:26:54.937Z,23.48
2023-02-16T08:27:54.922Z,23.49
2023-02-16T08:28:54.917Z,23.50
2023-02-16T08:29:54.941Z,23.52
2023-02-16T08:30:54.824Z,23.51
2023-02-16T08:31:54.883Z,23.51
2023-02-16T08:32:54.762Z,23.51
2023-02-16T08:33:54.752Z,23.50
2023-02-16T08:34:54.710Z,23.51
2023-02-16T08:35:54.685Z,23.51
2023-02-16T08:36:54.660Z,23.52
2023-02-16T08:37:54.637Z,23.53
2023-02-16T08:38:54.603Z,23.53
2023-02-16T08:39:54.570Z,23.52
2023-02-16T08:40:54.533Z,23.52
2023-02-16T08:41:54.511Z,23.51
2023-02-16T08:42:54.486Z,23.51
2023-02-16T08:43:54.472Z,23.52
2023-02-16T08:44:54.498Z,23.50
2023-02-16T08:45:54.617Z,23.51
2023-02-16T08:46:54.358Z,23.51
2023-02-16T08:47:54.333Z,23.52
2023-02-16T08:48:55.870Z,23.52
2023-02-16T08:49:54.292Z,23.53
2023-02-16T08:50:54.247Z,23.54
2023-02-16T08:51:54.209Z,23.55
2023-02-16T08:52:54.177Z,23.55
2023-02-16T08:53:54.162Z,23.56
2023-02-16T08:54:54.136Z,23.56
2023-02-16T08:55:54.099Z,23.57
2023-02-16T08:56:54.061Z,23.57
2023-02-16T08:57:54.034Z,23.59
2023-02-16T08:58:54.014Z,23.59
2023-02-16T08:59:53.992Z,23.60
2023-02-16T09:00:54.024Z,23.60
2023-02-16T09:01:53.939Z,23.62
2023-02-16T09:02:53.904Z,23.62
2023-02-16T09:03:53.994Z,23.63
2023-02-16T09:04:53.873Z,23.63
2023-02-16T09:05:53.844Z,23.63
2023-02-16T09:06:53.845Z,23.64
2023-02-16T09:07:53.805Z,23.64
2023-02-16T09:08:53.773Z,23.64
2023-02-16T09:09:53.750Z,23.64
2023-02-16T09:10:53.716Z,23.63
2023-02-16T09:11:53.708Z,23.65
2023-02-16T09:12:53.670Z,23.66
2023-02-16T09:13:53.669Z,23.68
2023-02-16T09:14:53.618Z,23.70
2023-02-16T09:15:53.585Z,23.71
2023-02-16T09:16:53.632Z,23.73
2023-02-16T09:17:53.523Z,23.73
2023-02-16T09:18:53.521Z,23.74
2023-02-16T09:19:53.496Z,23.74
2023-02-16T09:20:53.453Z,23.75
2023-02-16T09:21:53.419Z,23.75
2023-02-16T09:22:53.398Z,23.76
2023-02-16T09:23:53.368Z,23.77
2023-02-16T09:24:53.338Z,23.77
2023-02-16T09:25:53.309Z,23.79
2023-02-16T09:26:53.277Z,23.80
2023-02-16T09:27:53.262Z,23.80
2023-02-16T09:28:53.217Z,23.82
2023-02-16T09:29:53.226Z,23.83
2023-02-16T09:30:53.228Z,23.82
2023-02-16T09:31:53.113Z,23.83
2023-02-16T09:32:53.078Z,23.82
2023-02-16T09:33:53.061Z,23.83
2023-02-16T09:34:53.016Z,23.83
2023-02-16T09:35:53.007Z,23.84
2023-02-16T09:36:52.962Z,23.86
2023-02-16T09:37:52.933Z,23.87
2023-02-16T09:38:52.898Z,23.87
2023-02-16T09:39:52.870Z,23.87
2023-02-16T09:40:52.836Z,23.88
2023-02-16T09:41:52.805Z,23.89
2023-02-16T09:42:52.773Z,23.90
2023-02-16T09:43:52.750Z,23.91
2023-02-16T09:45:52.751Z,23.93
2023-02-16T09:46:52.655Z,23.94
2023-02-16T09:47:52.648Z,23.96
2023-02-16T09:48:52.619Z,23.99
2023-02-16T09:49:52.576Z,24.00
2023-02-16T09:50:54.520Z,24.02
2023-02-16T09:51:52.512Z,24.03
2023-02-16T09:52:52.600Z,24.04
2023-02-16T09:53:52.446Z,24.05
2023-02-16T09:54:52.402Z,24.07
2023-02-16T09:55:52.381Z,24.10
2023-02-16T09:56:52.338Z,24.12
2023-02-16T09:57:52.299Z,24.14
2023-02-16T09:58:52.264Z,24.15
2023-02-16T09:59:52.226Z,24.16
2023-02-16T10:00:52.192Z,24.16
2023-02-16T10:01:52.148Z,24.17
2023-02-16T10:02:52.099Z,24.18
2023-02-16T10:03:52.066Z,24.19
2023-02-16T10:04:52.031Z,24.21
2023-02-16T10:05:51.997Z,24.24
2023-02-16T10:06:51.962Z,24.27
2023-02-16T10:07:51.961Z,24.28
2023-02-16T10:08:51.864Z,24.30
2023-02-16T10:09:51.833Z,24.32
2023-02-16T10:10:51.798Z,24.32
2023-02-16T10:11:51.769Z,24.33
2023-02-16T10:12:51.729Z,24.34
2023-02-16T10:13:51.700Z,24.36
2023-02-16T10:14:51.650Z,24.37
2023-02-16T10:15:53.915Z,24.38
2023-02-16T10:16:51.602Z,24.38
2023-02-16T10:17:51.562Z,24.40
2023-02-16T10:18:51.515Z,24.43
2023-02-16T10:19:51.480Z,24.43
2023-02-16T10:20:51.467Z,24.45
2023-02-16T10:21:51.430Z,24.46
2023-02-16T10:22:51.368Z,24.48
2023-02-16T10:23:51.337Z,24.48
2023-02-16T10:24:51.276Z,24.49
2023-02-16T10:25:51.273Z,24.50
2023-02-16T13:53:42.691Z,25.23
2023-02-16T14:10:41.934Z,25.25
2023-02-16T14:11:41.881Z,25.24
2023-02-16T14:12:41.851Z,25.24
2023-02-16T14:13:41.800Z,25.24
2023-02-16T14:14:41.761Z,25.24
2023-02-16T14:15:41.765Z,25.24
2023-02-16T14:16:41.674Z,25.24
2023-02-16T14:17:41.636Z,25.24
2023-02-16T14:18:41.602Z,25.25
2023-02-16T14:19:41.565Z,25.24
2023-02-16T14:20:41.530Z,25.25
2023-02-16T14:21:41.607Z,25.24
2023-02-16T14:22:41.450Z,25.24
2023-02-16T14:23:41.399Z,25.23
2023-02-16T14:24:41.356Z,25.23
2023-02-16T14:25:41.328Z,25.23
2023-02-16T14:26:41.268Z,25.22
2023-02-16T14:27:41.224Z,25.22
2023-02-16T15:40:38.237Z,24.72
2023-02-16T15:56:37.626Z,24.62
2023-02-16T15:57:37.593Z,24.59
2023-02-16T15:58:37.551Z,24.60
2023-02-16T15:59:37.527Z,24.59
2023-02-16T16:00:37.478Z,24.58
2023-02-16T16:01:37.526Z,24.58
2023-02-16T16:02:37.419Z,24.57
2023-02-16T16:03:37.381Z,24.57
2023-02-16T16:04:37.348Z,24.56
2023-02-16T16:05:37.329Z,24.55
2023-02-16T16:06:37.283Z,24.55
2023-02-16T16:07:37.260Z,24.54
2023-02-16T16:08:37.218Z,24.54
2023-02-16T16:09:37.189Z,24.53
2023-02-16T16:10:37.151Z,24.53
2023-02-16T16:11:37.125Z,24.51
2023-02-16T16:12:37.098Z,24.50
2023-02-16T16:13:37.059Z,24.50
2023-02-16T16:14:37.020Z,24.49
2023-02-16T16:15:36.989Z,24.49
2023-02-16T16:16:36.980Z,24.48
2023-02-16T16:17:36.915Z,24.47
2023-02-16T16:18:36.873Z,24.47
2023-02-16T16:19:36.842Z,24.47
2023-02-16T16:20:36.813Z,24.46
2023-02-16T16:21:36.772Z,24.46
2023-02-16T16:22:36.745Z,24.44
2023-02-16T16:23:36.707Z,24.44
2023-02-16T16:24:36.667Z,24.44
2023-02-16T16:25:36.637Z,24.43
2023-02-16T16:26:36.633Z,24.42
2023-02-16T16:27:36.576Z,24.41
2023-02-16T16:28:36.523Z,24.41
2023-02-16T16:29:36.478Z,24.40
2023-02-16T16:30:36.446Z,24.39
2023-02-16T16:31:36.460Z,24.39
2023-02-16T16:32:36.382Z,24.38
2023-02-16T16:33:37.912Z,24.38
2023-02-16T16:34:36.301Z,24.37
2023-02-16T16:35:36.258Z,24.36
2023-02-16T16:36:36.225Z,24.36
2023-02-16T16:37:36.190Z,24.35
2023-02-16T16:38:36.158Z,24.34
2023-02-16T16:39:36.116Z,24.34
2023-02-16T16:40:36.076Z,24.34
2023-02-16T16:41:36.054Z,24.33
2023-02-16T16:42:36.013Z,24.32
2023-02-16T16:43:36.011Z,24.31
2023-02-16T16:44:35.934Z,24.32
2023-02-16T16:45:35.949Z,24.32
2023-02-16T16:46:35.861Z,24.31
2023-02-16T16:47:35.832Z,24.29
2023-02-16T16:48:35.800Z,24.30
2023-02-16T16:49:35.769Z,24.29
2023-02-16T16:50:37.212Z,24.28
2023-02-16T16:51:35.699Z,24.28
2023-02-16T16:52:35.670Z,24.27
2023-02-16T16:53:35.636Z,24.25
2023-02-16T16:54:35.616Z,24.26
2023-02-16T16:55:35.585Z,24.25
2023-02-16T16:56:35.548Z,24.25
2023-02-16T16:57:35.513Z,24.23
2023-02-16T16:58:35.499Z,24.23
2023-02-16T16:59:35.470Z,24.23
2023-02-16T17:00:35.448Z,24.22
2023-02-16T17:01:35.407Z,24.22
2023-02-16T17:02:35.358Z,24.21
2023-02-16T17:03:35.331Z,24.20
2023-02-16T17:04:35.297Z,24.20
2023-02-16T17:05:35.278Z,24.20
2023-02-16T17:06:35.226Z,24.19
2023-02-16T17:07:35.187Z,24.19
2023-02-16T17:08:35.166Z,24.18
2023-02-16T17:09:35.121Z,24.18
2023-02-16T17:10:35.081Z,24.16
2023-02-16T17:11:35.061Z,24.17
2023-02-16T17:12:35.015Z,24.16
2023-02-16T17:13:34.987Z,24.15
2023-02-16T17:14:34.959Z,24.14
2023-02-16T17:15:34.922Z,24.14
2023-02-16T17:16:34.919Z,24.14
2023-02-16T17:17:34.858Z,24.13
2023-02-16T17:18:34.826Z,24.13
2023-02-16T17:19:34.785Z,24.13
2023-02-16T17:20:34.758Z,24.12
2023-02-16T17:21:34.722Z,24.12
2023-02-16T17:22:34.681Z,24.11
2023-02-16T17:23:34.655Z,24.10
2023-02-16T17:24:34.616Z,24.10
2023-02-16T17:25:34.590Z,24.10
2023-02-16T17:26:34.556Z,24.09
2023-02-16T17:27:34.517Z,24.09
2023-02-16T17:28:34.491Z,24.08
2023-02-16T17:29:34.453Z,24.07
2023-02-16T17:30:34.569Z,24.07
2023-02-16T17:31:34.472Z,24.07
2023-02-16T17:32:34.382Z,24.06
2023-02-16T17:33:34.332Z,24.05
2023-02-16T17:34:34.291Z,24.05
2023-02-16T17:35:34.263Z,24.04
2023-02-16T17:36:34.238Z,24.04
2023-02-16T17:37:34.197Z,24.03
2023-02-16T17:38:34.166Z,24.03
2023-02-16T17:39:34.140Z,24.02
2023-02-16T17:40:34.101Z,24.02
2023-02-16T17:41:34.095Z,24.01
2023-02-16T17:42:34.045Z,24.00
2023-02-16T17:43:34.022Z,24.00
2023-02-16T17:44:33.988Z,24.00
2023-02-16T17:45:33.966Z,23.99
2023-02-16T17:46:33.926Z,23.99
2023-02-16T17:47:33.893Z,23.99
2023-02-16T17:48:33.845Z,23.98
2023-02-16T17:49:33.828Z,23.99
2023-02-16T17:50:33.784Z,23.98
2023-02-16T17:51:33.743Z,23.98
2023-02-16T17:52:33.715Z,23.97
2023-02-16T17:53:33.668Z,23.96
2023-02-16T17:54:33.636Z,23.96
2023-02-16T17:55:33.607Z,23.96
2023-02-16T17:56:33.571Z,23.96
2023-02-16T17:57:33.555Z,23.95
2023-02-16T17:58:33.513Z,23.95
2023-02-16T17:59:34.270Z,23.95
2023-02-16T18:00:33.448Z,23.94
2023-02-16T18:01:33.491Z,23.94
2023-02-16T18:02:33.389Z,23.93
2023-02-16T18:03:33.367Z,23.93
2023-02-16T18:04:33.349Z,23.91
2023-02-16T18:05:33.302Z,23.91
2023-02-16T18:06:33.274Z,23.91
2023-02-16T18:07:33.252Z,23.90
2023-02-16T18:08:33.211Z,23.89
2023-02-16T18:09:33.186Z,23.88
2023-02-16T18:10:33.147Z,23.88
2023-02-16T18:11:33.126Z,23.88
2023-02-16T18:12:33.091Z,23.87
2023-02-16T18:13:33.057Z,23.87
2023-02-16T18:14:33.034Z,23.87
2023-02-16T18:15:33.005Z,23.87
2023-02-16T18:16:32.999Z,23.87
2023-02-16T18:17:32.946Z,23.86
2023-02-16T18:18:32.911Z,23.86
2023-02-16T18:19:32.916Z,23.85
2023-02-16T18:20:32.857Z,23.85
2023-02-16T18:21:32.838Z,23.85
2023-02-16T18:22:32.798Z,23.84
2023-02-16T18:23:32.772Z,23.83
2023-02-16T18:24:32.754Z,23.83
2023-02-16T18:25:32.722Z,23.83
2023-02-16T18:26:32.685Z,23.82
2023-02-16T18:27:32.655Z,23.81
2023-02-16T18:28:32.630Z,23.81
2023-02-16T18:29:32.603Z,23.81
2023-02-16T18:30:32.690Z,23.80
2023-02-16T18:31:32.679Z,23.80
2023-02-16T18:32:32.506Z,23.79
2023-02-16T18:33:32.482Z,23.79
2023-02-16T18:34:32.482Z,23.78
2023-02-16T18:35:32.467Z,23.79
2023-02-16T18:36:32.418Z,23.79
2023-02-16T18:37:32.381Z,23.79
2023-02-16T18:38:32.364Z,23.77
2023-02-16T18:39:32.337Z,23.78
2023-02-16T18:40:32.306Z,23.77
2023-02-16T18:41:32.289Z,23.77
2023-02-16T18:42:32.256Z,23.76
2023-02-16T18:43:32.230Z,23.76
2023-02-16T18:44:32.209Z,23.77
2023-02-16T18:45:32.190Z,23.75
2023-02-16T18:46:32.236Z,23.75
2023-02-16T18:47:32.124Z,23.75
2023-02-16T18:48:32.095Z,23.74
2023-02-16T18:49:32.068Z,23.73
2023-02-16T18:50:32.036Z,23.72
2023-02-16T18:51:32.060Z,23.72
2023-02-16T18:52:31.993Z,23.72
2023-02-16T18:53:31.960Z,23.71
2023-02-16T18:54:31.929Z,23.71
2023-02-16T18:55:31.912Z,23.70
2023-02-16T18:56:31.868Z,23.70
2023-02-16T18:57:31.838Z,23.69
2023-02-16T18:58:31.801Z,23.69
2023-02-16T18:59:31.776Z,23.68
2023-02-16T19:00:31.751Z,23.68
2023-02-16T19:01:31.774Z,23.69
2023-02-16T19:02:31.702Z,23.68
2023-02-16T19:03:31.766Z,23.67
2023-02-16T19:04:31.668Z,23.66
2023-02-16T19:05:31.622Z,23.66
2023-02-16T19:06:31.578Z,23.66
2023-02-16T19:07:31.550Z,23.66
2023-02-16T19:08:31.529Z,23.66
2023-02-16T19:09:31.503Z,23.66
2023-02-16T19:10:31.479Z,23.65
2023-02-16T19:11:31.453Z,23.66
2023-02-16T19:12:31.434Z,23.65
2023-02-16T19:13:31.413Z,23.65
2023-02-16T19:14:31.381Z,23.65
2023-02-16T19:15:31.380Z,23.65
2023-02-16T19:16:31.334Z,23.63
2023-02-16T19:17:31.307Z,23.64
2023-02-16T19:18:31.290Z,23.64
2023-02-16T19:19:31.256Z,23.64
2023-02-16T19:20:31.246Z,23.64
2023-02-16T20:08:29.928Z,23.49
2023-02-16T20:09:29.894Z,23.48
2023-02-16T20:11:29.866Z,23.49
2023-02-16T20:12:29.818Z,23.48
2023-02-16T20:13:29.778Z,23.48
2023-02-16T20:14:29.748Z,23.48
2023-02-16T20:15:29.724Z,23.47
2023-02-16T20:16:29.787Z,23.47
2023-02-16T20:17:29.679Z,23.47
2023-02-16T20:18:29.649Z,23.47
2023-02-16T20:19:29.616Z,23.47
2023-02-16T20:20:29.588Z,23.47
2023-02-16T20:21:29.554Z,23.47
2023-02-16T20:22:29.534Z,23.47
2023-02-16T20:23:29.514Z,23.47
2023-02-16T20:24:29.495Z,23.45
2023-02-16T20:25:29.454Z,23.44
2023-02-16T20:26:29.443Z,23.44
2023-02-16T20:27:29.406Z,23.44
2023-02-16T20:28:29.385Z,23.43
2023-02-16T20:29:29.355Z,23.43
2023-02-16T20:30:29.342Z,23.43
2023-02-16T20:31:29.422Z,23.43
2023-02-16T20:32:29.272Z,23.43
2023-02-16T20:33:29.231Z,23.43
2023-02-16T20:34:29.210Z,23.41
2023-02-16T20:35:29.170Z,23.42
2023-02-16T20:36:29.143Z,23.41
2023-02-16T20:37:29.116Z,23.41
2023-02-16T20:38:29.102Z,23.41
2023-02-16T20:39:29.048Z,23.41
2023-02-16T20:40:29.027Z,23.41
2023-02-16T20:41:28.995Z,23.40
2023-02-16T20:42:28.988Z,23.40
2023-02-16T20:43:28.946Z,23.40
2023-02-16T20:44:28.918Z,23.40
2023-02-16T20:45:28.898Z,23.39
2023-02-16T20:46:28.892Z,23.39
2023-02-16T20:47:28.840Z,23.38
2023-02-16T20:48:28.808Z,23.38
2023-02-16T20:49:28.785Z,23.38
2023-02-16T20:50:28.757Z,23.37
2023-02-16T20:51:28.734Z,23.38
2023-02-16T20:52:28.712Z,23.38
2023-02-16T20:53:28.689Z,23.38
2023-02-16T20:54:28.651Z,23.37
2023-02-16T20:55:28.629Z,23.36